createdAt,value
2022-09-14T00:00:14.166Z,81.20
2022-09-14T00:02:42.086Z,81.20
2022-09-14T00:05:10.094Z,81.00
2022-09-14T00:07:39.268Z,80.80
2022-09-14T00:10:07.677Z,80.60
2022-09-14T00:12:35.513Z,80.40
2022-09-14T00:15:03.449Z,80.30
2022-09-14T00:17:31.388Z,80.50
2022-09-14T00:19:59.339Z,80.50
2022-09-14T00:22:27.171Z,80.70
2022-09-14T00:24:56.506Z,81.00
2022-09-14T00:27:24.412Z,81.20
2022-09-14T00:29:52.218Z,81.30
2022-09-14T00:32:20.119Z,81.50
2022-09-14T00:34:48.052Z,81.40
2022-09-14T00:37:15.906Z,81.30
2022-09-14T00:39:43.965Z,81.30
2022-09-14T00:42:16.513Z,81.50
2022-09-14T00:45:01.624Z,81.60
2022-09-14T00:47:30.448Z,81.80
2022-09-14T00:49:58.759Z,81.60
2022-09-14T00:52:28.062Z,81.50
2022-09-14T00:54:57.221Z,81.60
2022-09-14T00:57:27.219Z,81.60
2022-09-14T00:59:55.726Z,81.60
2022-09-14T01:02:24.672Z,81.70
2022-09-14T01:04:52.988Z,81.80
2022-09-14T01:07:27.418Z,81.90
2022-09-14T01:10:01.497Z,82.00
2022-09-14T01:12:36.486Z,82.00
2022-09-14T01:15:06.898Z,82.00
2022-09-14T01:17:39.940Z,82.10
2022-09-14T01:20:15.197Z,82.20
2022-09-14T01:22:45.836Z,82.30
2022-09-14T01:25:22.540Z,82.30
2022-09-14T01:27:51.963Z,82.40
2022-09-14T01:30:21.752Z,82.40
2022-09-14T01:32:52.081Z,82.30
2022-09-14T01:35:25.212Z,82.40
2022-09-14T01:37:54.948Z,82.40
2022-09-14T01:40:25.562Z,82.50
2022-09-14T01:42:58.769Z,82.60
2022-09-14T01:45:28.352Z,82.70
2022-09-14T01:47:57.802Z,82.90
2022-09-14T01:50:27.217Z,82.90
2022-09-14T01:52:57.363Z,83.10
2022-09-14T01:55:26.887Z,83.10
2022-09-14T01:57:58.344Z,83.20
2022-09-14T02:00:28.160Z,83.10
2022-09-14T02:02:58.055Z,83.20
2022-09-14T02:05:29.089Z,82.70
2022-09-14T02:07:57.434Z,82.50
2022-09-14T02:10:25.545Z,82.50
2022-09-14T02:12:54.181Z,82.50
2022-09-14T02:15:25.907Z,82.60
2022-09-14T02:17:54.333Z,82.60
2022-09-14T02:20:24.189Z,82.70
2022-09-14T02:22:52.995Z,82.90
2022-09-14T02:25:21.166Z,82.80
2022-09-14T02:27:49.203Z,82.80
2022-09-14T02:30:17.479Z,82.80
2022-09-14T02:32:50.216Z,82.70
2022-09-14T02:35:21.952Z,82.80
2022-09-14T02:37:54.307Z,82.80
2022-09-14T02:40:25.653Z,83.00
2022-09-14T02:42:59.845Z,83.00
2022-09-14T02:45:30.532Z,83.00
2022-09-14T02:48:03.195Z,83.20
2022-09-14T02:50:34.341Z,83.30
2022-09-14T02:53:06.125Z,83.30
2022-09-14T02:55:36.744Z,83.30
2022-09-14T02:58:06.260Z,83.40
2022-09-14T03:00:36.110Z,83.40
2022-09-14T03:03:05.989Z,83.30
2022-09-14T03:05:34.012Z,83.40
2022-09-14T03:08:02.100Z,83.20
2022-09-14T03:10:30.087Z,83.20
2022-09-14T03:12:58.736Z,83.30
2022-09-14T03:15:26.740Z,83.30
2022-09-14T03:17:54.757Z,83.30
2022-09-14T03:20:24.866Z,83.30
2022-09-14T03:22:52.815Z,83.30
2022-09-14T03:25:22.823Z,83.30
2022-09-14T03:27:50.939Z,83.30
2022-09-14T03:30:19.261Z,83.30
2022-09-14T03:32:48.165Z,83.20
2022-09-14T03:35:16.446Z,83.00
2022-09-14T03:37:46.201Z,83.00
2022-09-14T03:40:21.696Z,82.80
2022-09-14T03:42:50.845Z,82.80
2022-09-14T03:45:19.844Z,82.60
2022-09-14T03:47:48.077Z,82.60
2022-09-14T03:50:16.371Z,82.40
2022-09-14T03:52:45.829Z,82.30
2022-09-14T03:55:14.040Z,82.30
2022-09-14T03:57:41.930Z,82.20
2022-09-14T04:00:10.334Z,82.20
2022-09-14T04:02:41.283Z,82.20
2022-09-14T04:05:09.439Z,82.30
2022-09-14T04:07:37.464Z,82.30
2022-09-14T04:10:07.281Z,82.20
2022-09-14T04:12:35.599Z,82.20
2022-09-14T04:15:03.746Z,82.20
2022-09-14T04:17:31.532Z,82.20
2022-09-14T04:19:59.697Z,82.30
2022-09-14T04:22:27.523Z,82.30
2022-09-14T04:24:55.609Z,82.60
2022-09-14T04:27:24.910Z,82.60
2022-09-14T04:29:52.987Z,82.50
2022-09-14T04:32:22.477Z,82.60
2022-09-14T04:34:50.773Z,82.70
2022-09-14T04:37:18.624Z,82.70
2022-09-14T04:39:46.666Z,82.70
2022-09-14T04:42:14.719Z,82.70
2022-09-14T04:44:43.878Z,82.70
2022-09-14T04:47:11.859Z,82.60
2022-09-14T04:49:39.714Z,82.70
2022-09-14T04:52:07.537Z,82.80
2022-09-14T04:54:35.449Z,82.80
2022-09-14T04:57:03.281Z,82.80
2022-09-14T04:59:31.083Z,82.80
2022-09-14T05:02:00.368Z,82.70
2022-09-14T05:04:28.272Z,82.70
2022-09-14T05:06:56.312Z,82.80
2022-09-14T05:09:24.156Z,82.80
2022-09-14T05:11:52.831Z,82.90
2022-09-14T05:14:20.673Z,83.00
2022-09-14T05:16:48.581Z,83.10
2022-09-14T05:19:18.542Z,83.20
2022-09-14T05:21:46.548Z,83.20
2022-09-14T05:24:15.476Z,83.20
2022-09-14T05:26:44.113Z,83.10
2022-09-14T05:29:13.029Z,83.20
2022-09-14T05:31:40.919Z,83.20
2022-09-14T05:34:09.921Z,83.10
2022-09-14T05:36:39.215Z,83.00
2022-09-14T05:39:07.056Z,83.00
2022-09-14T05:41:34.952Z,83.00
2022-09-14T05:44:02.932Z,83.00
2022-09-14T05:46:30.901Z,83.10
2022-09-14T05:48:58.756Z,83.10
2022-09-14T05:51:29.965Z,83.10
2022-09-14T05:53:59.668Z,83.20
2022-09-14T05:56:28.571Z,83.20
2022-09-14T05:58:56.456Z,83.30
2022-09-14T06:01:25.147Z,83.40
2022-09-14T06:03:54.318Z,83.50
2022-09-14T06:06:22.464Z,83.50
2022-09-14T06:08:52.518Z,83.50
2022-09-14T06:11:23.036Z,83.60
2022-09-14T06:13:51.290Z,83.40
2022-09-14T06:16:20.187Z,83.40
2022-09-14T06:18:48.898Z,83.40
2022-09-14T06:21:19.196Z,83.30
2022-09-14T06:23:47.739Z,83.30
2022-09-14T06:26:16.152Z,83.30
2022-09-14T06:28:45.333Z,83.30
2022-09-14T06:31:13.487Z,83.10
2022-09-14T06:33:44.031Z,83.10
2022-09-14T06:36:14.601Z,83.20
2022-09-14T06:38:42.810Z,83.30
2022-09-14T06:41:12.227Z,83.30
2022-09-14T06:43:43.869Z,83.30
2022-09-14T06:46:14.616Z,83.10
2022-09-14T06:48:43.705Z,83.10
2022-09-14T06:51:12.683Z,83.00
2022-09-14T06:53:40.961Z,82.90
2022-09-14T06:56:08.809Z,82.90
2022-09-14T06:58:36.974Z,82.80
2022-09-14T07:01:05.620Z,82.80
2022-09-14T07:03:36.929Z,82.90
2022-09-14T07:06:06.451Z,83.00
2022-09-14T07:08:34.592Z,83.10
2022-09-14T07:11:04.226Z,83.20
2022-09-14T07:13:33.082Z,83.10
2022-09-14T07:16:01.079Z,83.00
2022-09-14T07:18:32.990Z,82.90
2022-09-14T07:21:06.147Z,82.70
2022-09-14T07:23:33.989Z,82.80
2022-09-14T07:26:03.138Z,83.00
2022-09-14T07:28:32.957Z,82.80
2022-09-14T07:31:01.167Z,82.90
2022-09-14T07:33:29.469Z,82.80
2022-09-14T07:36:06.638Z,82.60
2022-09-14T07:38:51.183Z,82.20
2022-09-14T07:41:20.736Z,82.00
2022-09-14T07:43:49.797Z,82.20
2022-09-14T07:46:18.289Z,82.10
2022-09-14T07:48:46.195Z,82.00
2022-09-14T07:51:15.475Z,82.40
2022-09-14T07:53:44.248Z,82.80
2022-09-14T07:56:12.866Z,82.70
2022-09-14T07:58:42.044Z,81.90
2022-09-14T08:01:11.836Z,81.50
2022-09-14T08:03:43.586Z,81.40
2022-09-14T08:06:12.187Z,81.10
2022-09-14T08:08:42.842Z,80.70
2022-09-14T08:11:12.905Z,80.70
2022-09-14T08:13:41.364Z,80.50
2022-09-14T08:16:09.738Z,80.30
2022-09-14T08:18:38.334Z,79.80
2022-09-14T08:21:06.980Z,80.20
2022-09-14T08:23:34.935Z,79.70
2022-09-14T08:26:05.103Z,79.50
2022-09-14T08:28:33.288Z,79.00
2022-09-14T08:31:04.857Z,79.10
2022-09-14T08:33:33.169Z,78.70
2022-09-14T08:36:01.141Z,78.30
2022-09-14T08:38:28.960Z,78.50
2022-09-14T08:40:57.243Z,79.30
2022-09-14T08:43:27.297Z,79.00
2022-09-14T08:45:59.346Z,79.30
2022-09-14T08:48:30.855Z,79.30
2022-09-14T08:50:58.634Z,78.90
2022-09-14T08:53:27.053Z,79.70
2022-09-14T08:55:56.605Z,79.90
2022-09-14T08:58:31.935Z,80.50
2022-09-14T09:01:03.683Z,80.50
2022-09-14T09:03:43.306Z,80.40
2022-09-14T09:06:16.057Z,81.00
2022-09-14T09:08:50.266Z,81.50
2022-09-14T09:11:20.029Z,81.60
2022-09-14T09:13:50.072Z,81.90
2022-09-14T09:16:19.834Z,81.40
2022-09-14T09:18:48.740Z,81.60
2022-09-14T09:21:17.619Z,81.30
2022-09-14T09:23:45.413Z,81.20
2022-09-14T09:26:16.917Z,81.10
2022-09-14T09:28:46.495Z,81.00
2022-09-14T09:31:16.185Z,80.70
2022-09-14T09:34:07.766Z,80.40
2022-09-14T09:36:37.761Z,80.30
2022-09-14T09:39:05.815Z,80.50
2022-09-14T09:41:38.846Z,80.50
2022-09-14T09:44:09.383Z,81.00
2022-09-14T09:46:39.318Z,81.30
2022-09-14T09:49:16.452Z,81.30
2022-09-14T09:51:45.049Z,81.20
2022-09-14T09:54:23.386Z,81.20
2022-09-14T09:56:55.922Z,81.00
2022-09-14T09:59:28.560Z,81.20
2022-09-14T10:01:58.364Z,80.80
2022-09-14T10:04:27.912Z,80.50
2022-09-14T10:06:57.678Z,80.60
2022-09-14T10:09:28.159Z,80.50
2022-09-14T10:11:59.999Z,80.00
2022-09-14T10:14:31.241Z,79.30
2022-09-14T10:17:07.492Z,78.40
2022-09-14T10:19:35.497Z,77.60
2022-09-14T10:22:17.509Z,77.40
2022-09-14T10:24:53.534Z,77.10
2022-09-14T10:27:37.147Z,77.10
2022-09-14T10:30:07.173Z,76.80
2022-09-14T10:32:37.907Z,76.00
2022-09-14T10:35:12.224Z,76.40
2022-09-14T10:37:43.303Z,76.30
2022-09-14T10:40:15.876Z,76.20
2022-09-14T10:42:50.264Z,75.90
2022-09-14T10:45:19.855Z,76.00
2022-09-14T10:47:55.882Z,75.90
2022-09-14T10:50:31.877Z,75.90
2022-09-14T10:53:11.645Z,75.90
2022-09-14T10:55:44.741Z,73.80
2022-09-14T10:58:23.763Z,70.30
2022-09-14T11:00:57.862Z,70.70
2022-09-14T11:03:35.744Z,70.10
2022-09-14T11:06:09.188Z,70.70
2022-09-14T11:08:41.871Z,70.10
2022-09-14T11:11:19.984Z,70.60
2022-09-14T11:13:53.348Z,71.20
2022-09-14T11:16:28.549Z,70.10
2022-09-14T11:19:02.328Z,70.60
2022-09-14T11:21:34.595Z,71.70
2022-09-14T11:24:06.674Z,72.50
2022-09-14T11:26:41.584Z,73.10
2022-09-14T11:29:25.441Z,73.90
2022-09-14T11:32:19.404Z,73.80
2022-09-14T11:34:47.636Z,74.30
2022-09-14T11:37:16.814Z,73.70
2022-09-14T11:39:47.901Z,73.90
2022-09-14T11:42:19.378Z,73.60
2022-09-14T11:44:48.034Z,73.80
2022-09-14T11:47:18.763Z,73.60
2022-09-14T11:49:55.283Z,72.60
2022-09-14T11:52:24.427Z,72.00
2022-09-14T11:54:53.140Z,72.00
2022-09-14T11:57:22.425Z,71.40
2022-09-14T11:59:51.902Z,70.70
2022-09-14T12:02:53.217Z,70.60
2022-09-14T12:05:30.615Z,69.60
2022-09-14T12:08:03.119Z,69.20
2022-09-14T12:10:31.445Z,68.60
2022-09-14T12:12:59.985Z,67.40
2022-09-14T12:15:34.696Z,67.20
2022-09-14T12:18:29.706Z,67.40
2022-09-14T12:21:03.525Z,66.70
2022-09-14T12:23:43.359Z,67.00
2022-09-14T12:26:38.014Z,66.10
2022-09-14T12:29:07.497Z,66.90
2022-09-14T12:31:40.143Z,67.30
2022-09-14T12:34:27.063Z,67.70
2022-09-14T12:37:28.189Z,68.00
2022-09-14T12:40:15.250Z,68.10
2022-09-14T12:42:44.523Z,68.10
2022-09-14T12:45:30.787Z,68.30
2022-09-14T12:47:58.788Z,68.40
2022-09-14T12:50:28.215Z,68.70
2022-09-14T12:53:13.837Z,68.90
2022-09-14T12:55:45.076Z,69.40
2022-09-14T12:58:20.105Z,69.40
2022-09-14T13:00:52.843Z,69.20
2022-09-14T13:03:32.388Z,69.30
2022-09-14T13:06:00.236Z,69.80
2022-09-14T13:08:28.165Z,70.20
2022-09-14T13:10:56.183Z,70.90
2022-09-14T13:13:27.990Z,70.30
2022-09-14T13:15:57.612Z,70.30
2022-09-14T13:18:30.274Z,70.60
2022-09-14T13:20:58.963Z,70.40
2022-09-14T13:23:28.956Z,70.10
2022-09-14T13:25:57.202Z,70.00
2022-09-14T13:28:28.494Z,70.60
2022-09-14T13:30:57.643Z,71.50
2022-09-14T13:33:25.985Z,72.90
2022-09-14T13:35:55.199Z,74.20
2022-09-14T13:38:24.548Z,74.90
2022-09-14T13:40:53.576Z,75.30
2022-09-14T13:43:22.252Z,75.60
2022-09-14T13:45:52.137Z,76.30
2022-09-14T13:48:20.699Z,76.30
2022-09-14T13:50:49.500Z,76.50
2022-09-14T13:53:35.980Z,76.50
2022-09-14T13:56:16.598Z,76.40
2022-09-14T13:58:44.579Z,76.50
2022-09-14T14:01:15.984Z,77.00
2022-09-14T14:03:48.794Z,77.40
2022-09-14T14:06:20.862Z,77.40
2022-09-14T14:08:54.363Z,78.20
2022-09-14T14:11:27.789Z,78.70
2022-09-14T14:13:56.248Z,79.10
2022-09-14T14:16:26.991Z,78.90
2022-09-14T14:18:55.461Z,79.60
2022-09-14T14:21:28.295Z,79.70
2022-09-14T14:24:13.357Z,79.80
2022-09-14T14:26:48.072Z,79.80
2022-09-14T14:29:17.614Z,79.50
2022-09-14T14:31:47.170Z,79.60
2022-09-14T14:34:19.608Z,79.60
2022-09-14T14:36:50.037Z,79.50
2022-09-14T14:39:19.439Z,79.50
2022-09-14T14:41:47.971Z,79.40
2022-09-14T14:44:17.894Z,79.60
2022-09-14T14:46:47.415Z,79.00
2022-09-14T14:49:17.128Z,79.10
2022-09-14T14:51:45.589Z,79.00
2022-09-14T14:54:16.755Z,78.80
2022-09-14T14:56:46.499Z,78.30
2022-09-14T14:59:23.463Z,78.60
2022-09-14T15:01:53.906Z,78.90
2022-09-14T15:04:21.873Z,79.20
2022-09-14T15:06:50.227Z,79.80
2022-09-14T15:09:19.521Z,79.90
2022-09-14T15:11:48.811Z,80.30
2022-09-14T15:14:17.545Z,80.20
2022-09-14T15:16:46.057Z,80.10
2022-09-14T15:19:15.638Z,80.40
2022-09-14T15:21:43.680Z,80.80
2022-09-14T15:24:12.115Z,81.20
2022-09-14T15:26:40.256Z,81.50
2022-09-14T15:29:09.244Z,81.70
2022-09-14T15:31:37.287Z,82.00
2022-09-14T15:34:05.322Z,81.80
2022-09-14T15:36:38.076Z,81.60
2022-09-14T15:39:06.341Z,81.70
2022-09-14T15:41:34.263Z,81.50
2022-09-14T15:44:03.707Z,81.30
2022-09-14T15:46:32.012Z,81.50
2022-09-14T15:49:00.086Z,81.00
2022-09-14T15:51:28.159Z,79.90
2022-09-14T15:53:58.630Z,79.80
2022-09-14T15:56:26.609Z,80.20
2022-09-14T15:58:54.773Z,80.40
2022-09-14T16:01:22.813Z,80.20
2022-09-14T16:03:50.942Z,80.00
2022-09-14T16:06:18.930Z,79.60
2022-09-14T16:08:47.110Z,79.10
2022-09-14T16:11:16.512Z,79.10
2022-09-14T16:13:44.558Z,78.60
2022-09-14T16:16:13.618Z,78.80
2022-09-14T16:18:42.235Z,78.80
2022-09-14T16:21:11.114Z,78.80
2022-09-14T16:23:40.237Z,78.70
2022-09-14T16:26:10.334Z,78.50
2022-09-14T16:28:40.040Z,78.60
2022-09-14T16:31:08.591Z,78.60
2022-09-14T16:33:38.464Z,78.50
2022-09-14T16:36:07.991Z,78.70
2022-09-14T16:38:36.520Z,78.60
2022-09-14T16:41:04.807Z,78.60
2022-09-14T16:43:33.550Z,78.70
2022-09-14T16:46:04.151Z,78.70
2022-09-14T16:48:32.563Z,78.80
2022-09-14T16:51:01.995Z,78.90
2022-09-14T16:53:30.380Z,79.30
2022-09-14T16:56:02.894Z,79.00
2022-09-14T16:58:31.010Z,79.30
2022-09-14T17:01:07.001Z,79.40
2022-09-14T17:03:36.606Z,79.40
2022-09-14T17:06:05.428Z,79.70
2022-09-14T17:08:34.166Z,79.90
2022-09-14T17:11:04.249Z,80.30
2022-09-14T17:13:32.580Z,80.40
2022-09-14T17:16:04.146Z,80.70
2022-09-14T17:18:32.250Z,80.80
2022-09-14T17:21:02.493Z,81.20
2022-09-14T17:23:30.576Z,81.60
2022-09-14T17:25:58.496Z,82.00
2022-09-14T17:28:27.390Z,82.40
2022-09-14T17:31:00.959Z,82.60
2022-09-14T17:33:30.079Z,82.80
2022-09-14T17:35:59.371Z,82.90
2022-09-14T17:38:29.682Z,82.50
2022-09-14T17:41:01.148Z,82.40
2022-09-14T17:43:29.037Z,82.40
2022-09-14T17:45:58.220Z,82.30
2022-09-14T17:48:26.483Z,82.30
2022-09-14T17:50:54.514Z,82.30
2022-09-14T17:53:22.560Z,82.20
2022-09-14T17:55:51.847Z,82.20
2022-09-14T17:58:20.147Z,82.20
2022-09-14T18:00:48.689Z,82.20
2022-09-14T18:03:16.850Z,82.30
2022-09-14T18:05:54.407Z,82.40
2022-09-14T18:08:22.727Z,82.40
2022-09-14T18:10:52.615Z,82.40
2022-09-14T18:13:20.782Z,82.50
2022-09-14T18:15:49.171Z,82.70
2022-09-14T18:18:17.762Z,82.60
2022-09-14T18:20:46.016Z,82.80
2022-09-14T18:23:13.974Z,82.80
2022-09-14T18:25:42.224Z,82.90
2022-09-14T18:28:11.575Z,82.90
2022-09-14T18:30:43.518Z,82.80
2022-09-14T18:33:11.995Z,82.80
2022-09-14T18:35:40.317Z,82.90
2022-09-14T18:38:08.311Z,82.90
2022-09-14T18:40:36.729Z,82.90
2022-09-14T18:43:04.798Z,82.90
2022-09-14T18:45:35.338Z,82.90
2022-09-14T18:48:03.779Z,82.80
2022-09-14T18:50:33.120Z,82.90
2022-09-14T18:53:02.518Z,82.80
2022-09-14T18:55:32.002Z,82.90
2022-09-14T18:58:00.527Z,82.90
2022-09-14T19:00:28.852Z,82.90
2022-09-14T19:02:58.691Z,82.90
2022-09-14T19:05:27.769Z,82.90
2022-09-14T19:07:55.710Z,82.90
2022-09-14T19:10:23.836Z,83.10
2022-09-14T19:12:52.123Z,83.10
2022-09-14T19:15:21.080Z,83.00
2022-09-14T19:17:49.303Z,83.10
2022-09-14T19:20:22.674Z,83.10
2022-09-14T19:22:51.690Z,83.10
2022-09-14T19:25:19.901Z,83.00
2022-09-14T19:27:49.736Z,82.90
2022-09-14T19:30:18.323Z,82.80
2022-09-14T19:32:46.474Z,82.90
2022-09-14T19:35:14.654Z,83.00
2022-09-14T19:37:44.079Z,83.10
2022-09-14T19:40:12.550Z,83.20
2022-09-14T19:42:41.984Z,83.30
2022-09-14T19:45:10.523Z,83.50
2022-09-14T19:47:38.776Z,83.60
2022-09-14T19:50:08.159Z,83.70
2022-09-14T19:52:36.719Z,83.80
2022-09-14T19:55:06.653Z,84.00
2022-09-14T19:57:36.651Z,84.00
2022-09-14T20:00:06.452Z,84.00
2022-09-14T20:02:34.605Z,84.00
2022-09-14T20:05:02.726Z,83.90
2022-09-14T20:07:30.998Z,83.80
2022-09-14T20:09:59.178Z,83.70
2022-09-14T20:12:31.595Z,83.60
2022-09-14T20:14:59.874Z,83.60
2022-09-14T20:17:28.379Z,83.60
2022-09-14T20:19:56.474Z,83.60
2022-09-14T20:22:24.495Z,83.60
2022-09-14T20:24:52.830Z,83.60
2022-09-14T20:27:21.378Z,83.60
2022-09-14T20:29:50.743Z,83.50
2022-09-14T20:32:20.324Z,83.60
2022-09-14T20:34:48.352Z,83.70
2022-09-14T20:37:17.570Z,83.80
2022-09-14T20:39:45.827Z,83.80
2022-09-14T20:42:13.967Z,83.80
2022-09-14T20:44:42.012Z,83.80
2022-09-14T20:47:11.359Z,83.80
2022-09-14T20:49:39.466Z,83.80
2022-09-14T20:52:07.461Z,83.70
2022-09-14T20:54:35.488Z,83.70
2022-09-14T20:57:04.619Z,83.80
2022-09-14T20:59:32.947Z,83.80
2022-09-14T21:02:04.774Z,83.80
2022-09-14T21:04:35.414Z,83.70
2022-09-14T21:07:03.229Z,83.80
2022-09-14T21:09:31.944Z,83.70
2022-09-14T21:12:00.314Z,83.70
2022-09-14T21:14:28.550Z,83.80
2022-09-14T21:16:57.458Z,83.90
2022-09-14T21:19:26.924Z,84.00
2022-09-14T21:21:56.282Z,84.10
2022-09-14T21:24:24.624Z,84.10
2022-09-14T21:26:52.515Z,84.10
2022-09-14T21:29:23.033Z,84.00
2022-09-14T21:31:51.147Z,84.00
2022-09-14T21:34:19.392Z,84.00
2022-09-14T21:36:49.014Z,83.90
2022-09-14T21:39:22.095Z,83.90
2022-09-14T21:41:54.466Z,83.90
2022-09-14T21:44:28.370Z,83.90
2022-09-14T21:46:56.267Z,83.90
2022-09-14T21:49:24.135Z,84.00
2022-09-14T21:51:53.914Z,84.10
2022-09-14T21:54:23.329Z,84.10
2022-09-14T21:56:51.187Z,84.10
2022-09-14T21:59:19.893Z,84.10
2022-09-14T22:01:48.342Z,84.10
2022-09-14T22:04:17.060Z,84.10
2022-09-14T22:06:46.121Z,84.10
2022-09-14T22:09:14.427Z,84.10
2022-09-14T22:11:44.104Z,84.00
2022-09-14T22:14:18.078Z,83.90
2022-09-14T22:16:46.082Z,84.00
2022-09-14T22:19:16.377Z,83.90
2022-09-14T22:21:44.977Z,83.80
2022-09-14T22:24:14.070Z,83.80
2022-09-14T22:26:44.202Z,83.60
2022-09-14T22:29:12.913Z,83.50
2022-09-14T22:31:41.683Z,83.30
2022-09-14T22:34:09.989Z,83.30
2022-09-14T22:36:38.107Z,83.20
2022-09-14T22:39:07.007Z,83.10
2022-09-14T22:41:35.213Z,83.00
2022-09-14T22:44:05.161Z,83.00
2022-09-14T22:46:33.573Z,83.10
2022-09-14T22:49:01.471Z,83.20
2022-09-14T22:51:29.885Z,83.10
2022-09-14T22:53:57.940Z,83.10
2022-09-14T22:56:26.979Z,83.20
2022-09-14T22:58:55.104Z,83.20
2022-09-14T23:01:25.283Z,83.30
2022-09-14T23:03:55.747Z,83.30
2022-09-14T23:06:26.174Z,83.20
2022-09-14T23:08:53.984Z,83.20
2022-09-14T23:11:21.948Z,83.10
2022-09-14T23:13:50.105Z,83.20
2022-09-14T23:16:18.683Z,83.10
2022-09-14T23:18:50.993Z,83.20
2022-09-14T23:21:18.889Z,83.10
2022-09-14T23:23:51.139Z,83.20
2022-09-14T23:26:19.154Z,83.20
2022-09-14T23:28:51.410Z,83.30
2022-09-14T23:31:20.613Z,83.30
2022-09-14T23:33:53.833Z,83.40
2022-09-14T23:36:22.869Z,83.30
2022-09-14T23:38:50.971Z,83.30
2022-09-14T23:41:19.735Z,83.30
2022-09-14T23:43:48.086Z,83.40
2022-09-14T23:46:16.141Z,83.40
2022-09-14T23:48:44.145Z,83.50
2022-09-14T23:51:13.807Z,83.30
2022-09-14T23:53:41.973Z,83.30
2022-09-14T23:56:10.954Z,83.40
2022-09-14T23:58:39.276Z,83.40
